Terminal Aerodrome Forecast
Issued by NWS Wilmington, OH

Current Version | Previous Version | Graphics & Text | Print | Product List | Glossary On
Versions: 1 2 3 4 5 6 7 8 9 10 11 12 13 14 15 16 17 18 19 20 21 22 23 24 25
952
FTUS41 KILN 260240 AAA
TAFCVG
TAF AMD
KCVG 260240Z 2603/2706 15006KT P6SM VCSH OVC080
      TEMPO 2603/2604 -SHRA
     FM260800 16006KT 6SM -SHRA OVC050
     FM261500 18009KT 4SM -SHRA OVC025
     FM261800 20008KT P6SM -SHRA VCTS OVC040CB
     FM262300 21007KT P6SM BKN050=

USA.gov is the U.S. government's official web portal to all federal, state and local government web resources and services.